Time;durP1;ratioP1;P1;durP2;ratioP2;P2;SDS_P1;SDS_P2;PMS_P1;PMS_P2;Temp;Humidity;BMP_temperature;BMP_pressure;BME280_temperature;BME280_humidity;BME280_pressure;Samples;Min_cycle;Max_cycle;Signal;HPM_P1;HPM_P2
2022/10/13 00:00:00;;;;;;;21.23;14.10;;;8.90;99.90;;;;;;5057242;28;20523;-71
2022/10/13 00:02:25;;;;;;;27.02;14.18;;;8.90;99.90;;;;;;5056991;28;20051;-70
2022/10/13 00:04:51;;;;;;;25.40;14.30;;;9.00;99.90;;;;;;5057332;28;20052;-71
2022/10/13 00:07:17;;;;;;;22.80;14.48;;;9.00;99.90;;;;;;5058060;28;20095;-70
2022/10/13 00:09:42;;;;;;;20.73;13.52;;;9.00;99.90;;;;;;5057988;28;20060;-70
2022/10/13 00:12:08;;;;;;;26.48;14.35;;;9.00;99.90;;;;;;5057407;28;20037;-70
2022/10/13 00:14:34;;;;;;;32.45;14.90;;;9.00;99.90;;;;;;5057037;28;20056;-71
2022/10/13 00:16:59;;;;;;;24.85;13.38;;;9.00;99.90;;;;;;5056876;28;20366;-71
2022/10/13 00:19:25;;;;;;;21.88;12.75;;;9.10;99.90;;;;;;5039024;28;20454;-70
2022/10/13 00:21:50;;;;;;;20.20;13.25;;;9.00;99.90;;;;;;5039333;28;20049;-72
2022/10/13 00:24:16;;;;;;;22.15;13.65;;;9.10;99.90;;;;;;5057049;28;20052;-71
2022/10/13 00:26:41;;;;;;;19.80;12.77;;;9.10;99.90;;;;;;5057527;28;20450;-70
2022/10/13 00:29:07;;;;;;;27.30;15.25;;;9.10;99.90;;;;;;5057339;28;20041;-70
2022/10/13 00:31:33;;;;;;;23.30;14.55;;;9.10;99.90;;;;;;5057011;28;20048;-71
2022/10/13 00:33:59;;;;;;;29.65;15.13;;;9.10;99.90;;;;;;5056537;28;20053;-71
2022/10/13 00:36:25;;;;;;;25.45;15.10;;;9.10;99.90;;;;;;5056980;28;20057;-72
2022/10/13 00:38:51;;;;;;;29.83;15.48;;;9.20;99.90;;;;;;5056853;28;20130;-72
2022/10/13 00:41:17;;;;;;;29.80;15.95;;;9.20;99.90;;;;;;5056663;28;20045;-72
2022/10/13 00:43:46;;;;;;;25.60;14.73;;;9.10;99.90;;;;;;5056963;28;20311;-71
2022/10/13 00:46:12;;;;;;;29.17;15.70;;;9.10;99.90;;;;;;5056711;28;20060;-71
2022/10/13 00:48:38;;;;;;;22.90;14.48;;;9.10;99.90;;;;;;5056411;28;20063;-70
2022/10/13 00:51:04;;;;;;;24.40;15.23;;;9.30;99.90;;;;;;5056344;28;20095;-70
2022/10/13 00:53:33;;;;;;;23.38;14.50;;;9.10;99.90;;;;;;5056612;28;20073;-73
2022/10/13 00:55:59;;;;;;;26.00;15.15;;;9.10;99.90;;;;;;5056430;28;20060;-70
2022/10/13 00:58:31;;;;;;;34.90;16.55;;;9.10;99.90;;;;;;5055602;28;20088;-71
2022/10/13 01:00:58;;;;;;;21.80;14.25;;;9.10;99.90;;;;;;5056530;28;20052;-70
2022/10/13 01:03:25;;;;;;;25.38;16.23;;;9.10;99.90;;;;;;5056173;28;20060;-71
2022/10/13 01:05:54;;;;;;;25.52;15.52;;;9.10;99.90;;;;;;5056495;28;20048;-71
2022/10/13 01:08:21;;;;;;;23.50;14.25;;;9.10;99.90;;;;;;5056045;28;20127;-70
2022/10/13 01:10:57;;;;;;;23.33;15.07;;;9.10;99.90;;;;;;5056399;28;20052;-71
2022/10/13 01:13:34;;;;;;;30.92;16.90;;;9.10;99.90;;;;;;5056527;28;20045;-71
2022/10/13 01:16:41;;;;;;;31.92;16.40;;;9.10;99.90;;;;;;5055978;28;20247;-71
2022/10/13 01:19:44;;;;;;;25.95;16.55;;;9.10;99.90;;;;;;5009333;28;20071;-71
2022/10/13 01:22:31;;;;;;;26.30;16.02;;;9.10;99.90;;;;;;5038756;28;20044;-71
2022/10/13 01:25:31;;;;;;;26.50;16.60;;;9.20;99.90;;;;;;5037326;28;20068;-72
2022/10/13 01:28:31;;;;;;;28.75;16.30;;;9.10;99.90;;;;;;5055621;28;20061;-71
2022/10/13 01:31:26;;;;;;;21.27;13.38;;;9.10;99.90;;;;;;5055605;28;20131;-70
2022/10/13 01:34:07;;;;;;;30.35;17.40;;;9.20;99.90;;;;;;5048329;28;20045;-71
2022/10/13 01:36:42;;;;;;;32.63;14.68;;;9.10;99.90;;;;;;5055274;28;20061;-70
2022/10/13 01:39:28;;;;;;;26.00;15.85;;;9.20;99.90;;;;;;5055531;28;20060;-70
2022/10/13 01:42:04;;;;;;;24.73;15.20;;;9.10;99.90;;;;;;5055705;28;20049;-71
2022/10/13 01:44:36;;;;;;;27.67;17.23;;;9.10;99.90;;;;;;5055231;28;20453;-71
2022/10/13 01:47:04;;;;;;;28.45;16.77;;;9.10;99.90;;;;;;5055398;28;20033;-73
2022/10/13 01:49:34;;;;;;;26.10;16.27;;;9.10;99.90;;;;;;5037785;28;20124;-71
2022/10/13 01:52:07;;;;;;;25.55;14.27;;;9.10;99.90;;;;;;5055318;28;20110;-71
2022/10/13 01:54:33;;;;;;;26.92;15.38;;;9.10;99.90;;;;;;5055060;28;20037;-70
2022/10/13 01:56:59;;;;;;;22.73;15.50;;;9.10;99.90;;;;;;5055161;28;20068;-70
2022/10/13 01:59:28;;;;;;;28.92;15.80;;;9.10;99.90;;;;;;5055202;28;20102;-70
2022/10/13 02:02:08;;;;;;;29.50;17.00;;;9.10;99.90;;;;;;5055273;28;20040;-70
2022/10/13 02:04:39;;;;;;;31.42;16.63;;;9.10;99.90;;;;;;5054942;28;20041;-70
2022/10/13 02:07:29;;;;;;;27.45;15.88;;;9.20;99.90;;;;;;5055284;28;20049;-72
2022/10/13 02:10:02;;;;;;;27.52;16.75;;;9.20;99.90;;;;;;5036488;28;20053;-70
2022/10/13 02:12:54;;;;;;;23.70;15.67;;;9.20;99.90;;;;;;5055260;28;20110;-71
2022/10/13 02:15:24;;;;;;;24.35;17.23;;;9.20;99.90;;;;;;5040729;28;20370;-70
2022/10/13 02:17:50;;;;;;;29.38;16.48;;;9.20;99.90;;;;;;5054911;28;20099;-70
2022/10/13 02:20:18;;;;;;;30.40;16.10;;;9.20;99.90;;;;;;5055004;28;20335;-71
2022/10/13 02:22:46;;;;;;;30.92;17.05;;;9.30;99.90;;;;;;5055027;28;20373;-70
2022/10/13 02:25:12;;;;;;;26.25;15.30;;;9.20;99.90;;;;;;5055114;28;20052;-71
2022/10/13 02:27:37;;;;;;;33.58;16.65;;;9.20;99.90;;;;;;5054965;28;20057;-71
2022/10/13 02:30:04;;;;;;;28.05;17.55;;;9.20;99.90;;;;;;5055102;28;20513;-71
2022/10/13 02:32:30;;;;;;;28.63;16.90;;;9.20;99.90;;;;;;5054795;28;20052;-72
2022/10/13 02:34:55;;;;;;;26.55;16.98;;;9.20;99.90;;;;;;5055073;28;20064;-72
2022/10/13 02:37:24;;;;;;;27.33;16.45;;;9.20;99.90;;;;;;5054918;28;20056;-70
2022/10/13 02:39:49;;;;;;;18.50;13.43;;;9.20;99.90;;;;;;5034856;28;20041;-71
2022/10/13 02:42:15;;;;;;;27.67;16.15;;;9.20;99.90;;;;;;5018247;28;20156;-70
2022/10/13 02:44:40;;;;;;;28.90;16.10;;;9.20;99.90;;;;;;5035218;28;20045;-72
2022/10/13 02:47:06;;;;;;;30.33;16.52;;;9.20;99.90;;;;;;5034763;28;20052;-72
2022/10/13 02:49:31;;;;;;;28.63;15.43;;;9.20;99.90;;;;;;5034805;28;20045;-71
2022/10/13 02:51:57;;;;;;;31.13;18.00;;;9.20;99.90;;;;;;5034814;28;20497;-71
2022/10/13 02:54:23;;;;;;;26.63;14.82;;;9.20;99.90;;;;;;5053444;28;20037;-71
2022/10/13 02:56:48;;;;;;;31.75;16.10;;;9.20;99.90;;;;;;5054772;28;20080;-71
2022/10/13 02:59:14;;;;;;;23.80;16.27;;;9.20;99.90;;;;;;5054666;28;20033;-71
2022/10/13 03:01:41;;;;;;;26.67;15.20;;;9.20;99.90;;;;;;5055139;28;20049;-71
2022/10/13 03:04:10;;;;;;;24.38;16.88;;;9.20;99.90;;;;;;5054804;28;20099;-70
2022/10/13 03:06:35;;;;;;;26.77;16.17;;;9.20;99.90;;;;;;5055300;28;20327;-71
2022/10/13 03:09:01;;;;;;;26.67;16.90;;;9.20;99.90;;;;;;5036739;28;20107;-71
2022/10/13 03:11:27;;;;;;;34.10;17.77;;;9.20;99.90;;;;;;5054208;28;20118;-71
2022/10/13 03:13:53;;;;;;;24.60;15.15;;;9.20;99.90;;;;;;5054713;28;20037;-71
2022/10/13 03:16:19;;;;;;;28.98;16.95;;;9.30;99.90;;;;;;5054837;28;20124;-70
2022/10/13 03:18:45;;;;;;;27.90;16.83;;;9.30;99.90;;;;;;5054757;28;20041;-72
2022/10/13 03:21:10;;;;;;;31.33;17.27;;;9.30;99.90;;;;;;5055025;28;20110;-70
2022/10/13 03:23:36;;;;;;;32.65;16.63;;;9.30;99.90;;;;;;5040273;28;20369;-72
2022/10/13 03:26:01;;;;;;;27.45;16.10;;;9.30;99.90;;;;;;5040108;28;20044;-71
2022/10/13 03:28:27;;;;;;;23.88;16.27;;;9.30;99.90;;;;;;5057820;28;20041;-71
2022/10/13 03:31:05;;;;;;;28.67;15.73;;;9.40;99.90;;;;;;5057737;28;20523;-71
2022/10/13 03:33:31;;;;;;;33.28;16.95;;;9.30;99.90;;;;;;5057962;28;20051;-71
2022/10/13 03:35:59;;;;;;;27.85;17.70;;;9.40;99.90;;;;;;5057826;28;20124;-71
2022/10/13 03:38:25;;;;;;;27.05;17.00;;;9.40;99.90;;;;;;5058037;28;20061;-70
2022/10/13 03:40:50;;;;;;;28.80;17.88;;;9.40;99.90;;;;;;5057113;28;20079;-71
2022/10/13 03:43:16;;;;;;;23.05;16.15;;;9.40;99.90;;;;;;5057084;28;20071;-72
2022/10/13 03:45:42;;;;;;;29.67;17.75;;;9.40;99.90;;;;;;5057651;28;20045;-71
2022/10/13 03:48:07;;;;;;;29.75;17.42;;;9.40;99.90;;;;;;5057712;28;20045;-71
2022/10/13 03:50:33;;;;;;;28.17;17.02;;;9.40;99.90;;;;;;5057871;28;20041;-70
2022/10/13 03:52:58;;;;;;;23.13;16.00;;;9.40;99.90;;;;;;5058248;28;20080;-71
2022/10/13 03:55:24;;;;;;;25.08;16.77;;;9.50;99.90;;;;;;5057744;28;20045;-71
2022/10/13 03:57:49;;;;;;;30.90;19.05;;;9.70;99.90;;;;;;5057717;28;20064;-70
2022/10/13 04:00:15;;;;;;;30.63;18.83;;;9.50;99.90;;;;;;5057886;28;20049;-71
2022/10/13 04:02:41;;;;;;;29.02;18.88;;;9.50;99.90;;;;;;5057424;28;20045;-70
2022/10/13 04:05:07;;;;;;;34.58;19.40;;;9.50;99.90;;;;;;5057888;28;20056;-71
2022/10/13 04:07:33;;;;;;;26.77;17.98;;;9.50;99.90;;;;;;5039853;28;20455;-71
2022/10/13 04:09:59;;;;;;;30.88;18.77;;;9.60;99.90;;;;;;5038493;28;20449;-71
2022/10/13 04:12:24;;;;;;;31.77;19.55;;;9.90;99.90;;;;;;5056658;28;20043;-71
2022/10/13 04:14:50;;;;;;;29.95;20.10;;;9.60;99.90;;;;;;5056937;28;20469;-71
2022/10/13 04:17:16;;;;;;;27.50;17.60;;;9.60;99.90;;;;;;5057057;28;20045;-71
2022/10/13 04:19:41;;;;;;;35.83;21.45;;;9.50;99.90;;;;;;5057023;28;20052;-70
2022/10/13 04:22:07;;;;;;;30.25;17.60;;;9.60;99.90;;;;;;5039873;28;20060;-69
2022/10/13 04:24:32;;;;;;;29.85;17.40;;;9.80;99.90;;;;;;5056976;28;20048;-70
2022/10/13 04:26:58;;;;;;;31.55;18.92;;;9.60;99.90;;;;;;5057140;28;20140;-70
2022/10/13 04:29:24;;;;;;;33.65;19.98;;;9.60;99.90;;;;;;5039885;28;20339;-72
2022/10/13 04:31:49;;;;;;;39.17;22.02;;;9.60;99.90;;;;;;5057022;28;20041;-71
2022/10/13 04:34:15;;;;;;;36.95;21.50;;;9.60;99.90;;;;;;5055502;28;20071;-71
2022/10/13 04:36:40;;;;;;;33.70;18.70;;;9.60;99.90;;;;;;5056525;28;20053;-71
2022/10/13 04:39:06;;;;;;;30.02;19.58;;;9.60;99.90;;;;;;5056588;28;20076;-72
2022/10/13 04:41:31;;;;;;;29.92;19.63;;;9.60;99.90;;;;;;5056398;28;20469;-70
2022/10/13 04:43:58;;;;;;;36.50;21.85;;;9.60;99.90;;;;;;5056625;28;20037;-73
2022/10/13 04:46:26;;;;;;;34.80;21.38;;;9.60;99.90;;;;;;5056573;28;20049;-71
2022/10/13 04:48:53;;;;;;;35.50;20.25;;;9.60;99.90;;;;;;5056123;28;20044;-71
2022/10/13 04:51:21;;;;;;;33.47;20.05;;;9.60;99.90;;;;;;5055664;28;20381;-72
2022/10/13 04:53:47;;;;;;;34.35;21.58;;;9.60;99.90;;;;;;5055984;28;20041;-71
2022/10/13 04:56:16;;;;;;;26.08;18.10;;;9.60;99.90;;;;;;5039131;28;20048;-72
2022/10/13 04:58:44;;;;;;;33.78;20.38;;;9.60;99.90;;;;;;5056403;28;20052;-70
2022/10/13 05:01:19;;;;;;;28.90;20.40;;;9.60;99.90;;;;;;5056079;28;20049;-71
2022/10/13 05:03:44;;;;;;;34.08;21.23;;;9.60;99.90;;;;;;5056348;28;20045;-71
2022/10/13 05:06:19;;;;;;;34.10;21.88;;;9.60;99.90;;;;;;5055919;28;20041;-68
2022/10/13 05:08:44;;;;;;;36.20;22.10;;;9.60;99.90;;;;;;5055984;28;20045;-69
2022/10/13 05:11:10;;;;;;;42.15;24.67;;;9.60;99.90;;;;;;5056213;28;20098;-70
2022/10/13 05:13:36;;;;;;;32.50;20.67;;;9.60;99.90;;;;;;5056056;28;20057;-70
2022/10/13 05:16:10;;;;;;;38.35;21.48;;;9.60;99.90;;;;;;5055869;28;20124;-71
2022/10/13 05:18:36;;;;;;;38.58;23.23;;;9.70;99.90;;;;;;5055523;28;20503;-71
2022/10/13 05:21:16;;;;;;;38.92;22.90;;;9.70;99.90;;;;;;5055607;28;20369;-72
2022/10/13 05:23:42;;;;;;;38.60;24.30;;;9.70;99.90;;;;;;5055376;28;20445;-72
2022/10/13 05:26:14;;;;;;;40.03;22.95;;;9.70;99.90;;;;;;5055872;28;20354;-71
2022/10/13 05:28:40;;;;;;;35.13;21.50;;;9.70;99.90;;;;;;5038253;28;20060;-69
2022/10/13 05:31:21;;;;;;;41.95;24.92;;;9.70;99.90;;;;;;5055783;28;20056;-71
2022/10/13 05:33:48;;;;;;;37.88;22.55;;;9.70;99.90;;;;;;5055147;28;20045;-71
2022/10/13 05:36:16;;;;;;;43.78;26.27;;;9.70;99.90;;;;;;5055348;28;20049;-70
2022/10/13 05:38:44;;;;;;;45.83;25.52;;;9.70;99.90;;;;;;5055581;28;20049;-69
2022/10/13 05:41:11;;;;;;;38.65;23.95;;;9.70;99.90;;;;;;5055392;28;20056;-70
2022/10/13 05:43:39;;;;;;;47.90;27.27;;;9.70;99.90;;;;;;5055677;28;20124;-70
2022/10/13 05:46:05;;;;;;;43.25;27.02;;;9.70;99.90;;;;;;5055191;28;20052;-70
2022/10/13 05:48:31;;;;;;;45.55;27.17;;;9.70;99.90;;;;;;5055291;28;20056;-71
2022/10/13 05:51:00;;;;;;;32.85;20.95;;;9.80;99.90;;;;;;5037346;28;20049;-71
2022/10/13 05:53:31;;;;;;;42.10;27.42;;;9.70;99.90;;;;;;5055319;28;20049;-70
2022/10/13 05:56:04;;;;;;;51.30;27.92;;;9.70;99.90;;;;;;5055539;28;20056;-69
2022/10/13 05:58:42;;;;;;;46.30;27.85;;;9.70;99.90;;;;;;5055236;28;20049;-70
2022/10/13 06:01:11;;;;;;;38.28;24.80;;;9.70;99.90;;;;;;5055023;28;20052;-71
2022/10/13 06:03:38;;;;;;;44.00;27.35;;;9.70;99.90;;;;;;5054731;28;20445;-71
2022/10/13 06:06:05;;;;;;;58.10;30.23;;;9.70;99.90;;;;;;5054914;28;20045;-70
2022/10/13 06:08:30;;;;;;;35.30;21.42;;;9.70;99.90;;;;;;5055430;28;20052;-70
2022/10/13 06:10:56;;;;;;;45.95;27.48;;;9.70;99.90;;;;;;5054986;28;20041;-71
2022/10/13 06:13:22;;;;;;;50.22;30.38;;;9.70;99.90;;;;;;5054854;28;20056;-72
2022/10/13 06:15:47;;;;;;;39.63;25.13;;;9.80;99.90;;;;;;5055372;28;20048;-71
2022/10/13 06:18:13;;;;;;;55.28;28.02;;;9.80;99.90;;;;;;5054577;28;20052;-69
2022/10/13 06:20:38;;;;;;;52.92;30.42;;;9.80;99.90;;;;;;5055220;28;20051;-71
2022/10/13 06:23:04;;;;;;;43.95;28.10;;;9.80;99.90;;;;;;5055225;28;20047;-70
2022/10/13 06:25:30;;;;;;;36.33;24.23;;;9.90;99.90;;;;;;5054747;28;20464;-70
2022/10/13 06:27:56;;;;;;;54.22;31.05;;;9.90;99.90;;;;;;5055237;28;20045;-70
2022/10/13 06:30:22;;;;;;;55.65;31.30;;;9.90;99.90;;;;;;5054664;28;20049;-70
2022/10/13 06:32:47;;;;;;;51.83;31.88;;;10.00;99.90;;;;;;5054907;28;20045;-71
2022/10/13 06:35:13;;;;;;;52.95;29.83;;;10.00;99.90;;;;;;5054966;28;20049;-71
2022/10/13 06:37:39;;;;;;;47.78;28.83;;;10.00;99.90;;;;;;5055037;28;20049;-71
2022/10/13 06:40:06;;;;;;;50.60;30.50;;;10.10;99.90;;;;;;5054904;28;20115;-70
2022/10/13 06:42:32;;;;;;;38.33;27.13;;;10.10;99.90;;;;;;5054342;28;20080;-70
2022/10/13 06:44:58;;;;;;;44.90;27.95;;;10.40;99.90;;;;;;5054686;28;20116;-70
2022/10/13 06:47:24;;;;;;;43.30;26.88;;;10.10;99.90;;;;;;5054970;28;20087;-71
2022/10/13 06:49:50;;;;;;;40.45;25.67;;;10.20;99.90;;;;;;5055365;28;20037;-71
2022/10/13 06:52:15;;;;;;;37.05;24.08;;;10.20;99.90;;;;;;5054778;28;20186;-71
2022/10/13 06:54:41;;;;;;;45.17;28.80;;;10.20;99.90;;;;;;5054702;28;20051;-70
2022/10/13 06:57:06;;;;;;;44.50;26.73;;;10.30;99.90;;;;;;5056264;28;20125;-70
2022/10/13 06:59:32;;;;;;;48.03;28.30;;;10.30;99.90;;;;;;5058249;28;20052;-69
2022/10/13 07:01:58;;;;;;;48.35;29.17;;;10.30;99.90;;;;;;5058906;28;20049;-70
2022/10/13 07:04:24;;;;;;;35.40;23.10;;;10.40;99.90;;;;;;5058499;28;20057;-69
2022/10/13 07:06:50;;;;;;;48.33;26.17;;;10.50;99.90;;;;;;5058447;28;20180;-70
2022/10/13 07:09:16;;;;;;;45.30;26.50;;;10.50;99.90;;;;;;5058563;28;20425;-70
2022/10/13 07:11:44;;;;;;;34.50;22.17;;;10.50;99.90;;;;;;5057826;28;20059;-71
2022/10/13 07:14:10;;;;;;;45.50;28.58;;;10.60;99.90;;;;;;5058188;28;20122;-71
2022/10/13 07:16:36;;;;;;;31.85;21.95;;;10.60;99.90;;;;;;5058532;28;20457;-69
2022/10/13 07:19:01;;;;;;;34.72;22.15;;;10.60;99.90;;;;;;5058387;28;20472;-72
2022/10/13 07:21:27;;;;;;;40.60;23.92;;;10.60;99.90;;;;;;5040591;28;20076;-70
2022/10/13 07:23:53;;;;;;;37.85;24.48;;;10.70;99.90;;;;;;5058253;28;20123;-69
2022/10/13 07:26:18;;;;;;;34.45;23.25;;;10.70;99.90;;;;;;5057644;28;20423;-71
2022/10/13 07:28:44;;;;;;;35.55;21.98;;;10.70;99.90;;;;;;5057753;28;20033;-71
2022/10/13 07:31:16;;;;;;;39.83;23.27;;;10.70;99.90;;;;;;5058192;28;20456;-71
2022/10/13 07:33:43;;;;;;;33.60;23.40;;;10.80;99.90;;;;;;5058038;28;20040;-70
2022/10/13 07:36:10;;;;;;;33.40;20.70;;;10.80;99.90;;;;;;5057309;28;20063;-70
2022/10/13 07:38:36;;;;;;;32.28;21.10;;;10.80;99.90;;;;;;5057994;28;20045;-70
2022/10/13 07:41:03;;;;;;;42.08;25.02;;;10.80;99.90;;;;;;5057315;28;20511;-71
2022/10/13 07:43:29;;;;;;;36.17;23.95;;;10.90;99.90;;;;;;5057749;28;20052;-71
2022/10/13 07:45:58;;;;;;;42.15;24.55;;;11.00;99.90;;;;;;5057849;28;20037;-70
2022/10/13 07:48:24;;;;;;;35.65;23.00;;;11.10;99.90;;;;;;5057841;28;20446;-69
2022/10/13 07:50:49;;;;;;;37.22;24.55;;;11.20;99.90;;;;;;5057536;28;20049;-70
2022/10/13 07:53:15;;;;;;;35.80;22.80;;;11.50;99.90;;;;;;5057665;28;20068;-69
2022/10/13 07:55:40;;;;;;;29.17;19.65;;;11.40;99.90;;;;;;5056646;28;20164;-69
2022/10/13 07:58:06;;;;;;;32.78;21.77;;;11.40;99.90;;;;;;5056966;28;20052;-71
2022/10/13 08:00:32;;;;;;;27.60;19.85;;;11.40;99.90;;;;;;5057491;28;20045;-72
2022/10/13 08:02:57;;;;;;;37.38;21.13;;;11.50;99.90;;;;;;5057731;28;20499;-70
2022/10/13 08:05:23;;;;;;;29.65;19.92;;;11.60;99.90;;;;;;5057409;28;20090;-70
2022/10/13 08:07:48;;;;;;;30.25;20.70;;;11.60;99.90;;;;;;5058020;28;20053;-70
2022/10/13 08:10:14;;;;;;;30.77;21.83;;;11.70;99.90;;;;;;5056818;28;20044;-71
2022/10/13 08:12:39;;;;;;;27.85;18.67;;;11.80;99.90;;;;;;5056966;28;20059;-70
2022/10/13 08:15:06;;;;;;;31.98;22.27;;;11.90;99.90;;;;;;5057783;28;20041;-69
2022/10/13 08:17:32;;;;;;;29.42;18.80;;;12.00;99.90;;;;;;5056548;28;20502;-70
2022/10/13 08:19:57;;;;;;;29.73;20.33;;;12.00;99.90;;;;;;5056991;28;20041;-70
2022/10/13 08:22:23;;;;;;;29.58;18.85;;;12.10;99.90;;;;;;5039248;28;20048;-71
2022/10/13 08:24:48;;;;;;;30.52;19.48;;;12.30;99.90;;;;;;5056866;28;20349;-70
2022/10/13 08:27:23;;;;;;;29.67;18.10;;;12.20;99.90;;;;;;5056527;28;20056;-70
2022/10/13 08:29:49;;;;;;;26.85;18.67;;;12.30;99.90;;;;;;5057102;28;20048;-70
2022/10/13 08:32:15;;;;;;;30.05;18.85;;;12.30;99.90;;;;;;5057053;28;20037;-70
2022/10/13 08:34:41;;;;;;;26.17;17.45;;;12.40;99.90;;;;;;5056636;28;20033;-71
2022/10/13 08:37:15;;;;;;;24.63;16.98;;;12.40;99.90;;;;;;5057113;28;20040;-71
2022/10/13 08:39:40;;;;;;;;;;;12.50;99.90;;;;;;5057390;28;20400;-71
2022/10/13 08:42:18;;;;;;;29.17;18.13;;;12.50;99.90;;;;;;5056858;28;19921;-70
2022/10/13 08:44:48;;;;;;;27.50;17.77;;;12.50;99.90;;;;;;5056721;28;20045;-70
2022/10/13 08:47:26;;;;;;;28.42;18.83;;;12.60;99.90;;;;;;5039143;28;20048;-71
2022/10/13 08:49:55;;;;;;;30.02;18.20;;;12.50;99.90;;;;;;5038608;28;20048;-70
2022/10/13 08:52:26;;;;;;;27.52;17.10;;;12.60;99.90;;;;;;5056208;28;20139;-70
2022/10/13 08:54:54;;;;;;;29.42;18.67;;;12.60;99.90;;;;;;5056285;28;20045;-70
2022/10/13 08:57:20;;;;;;;34.47;22.70;;;12.50;99.90;;;;;;5038915;28;20128;-71
2022/10/13 08:59:47;;;;;;;29.83;20.05;;;12.60;99.90;;;;;;5055779;28;20060;-71
2022/10/13 09:02:22;;;;;;;32.70;20.17;;;12.80;99.90;;;;;;5056314;28;20509;-72
2022/10/13 09:04:51;;;;;;;32.53;18.92;;;12.70;99.90;;;;;;5055874;28;20123;-71
2022/10/13 09:07:25;;;;;;;25.90;18.17;;;12.80;99.90;;;;;;5055888;28;20045;-70
2022/10/13 09:09:53;;;;;;;26.73;19.75;;;12.80;99.90;;;;;;5038747;28;20041;-71
2022/10/13 09:12:23;;;;;;;29.48;18.00;;;12.80;99.90;;;;;;5056047;28;20072;-73
2022/10/13 09:15:08;;;;;;;23.05;16.98;;;12.80;99.90;;;;;;5055596;28;20088;-69
2022/10/13 09:17:36;;;;;;;27.85;19.02;;;12.80;99.90;;;;;;5056131;28;20045;-72
2022/10/13 09:20:19;;;;;;;27.48;19.63;;;13.00;99.90;;;;;;5055471;28;20045;-69
2022/10/13 09:23:03;;;;;;;33.35;20.70;;;12.90;99.90;;;;;;5056014;28;20124;-70
2022/10/13 09:25:37;;;;;;;30.52;19.30;;;13.00;99.90;;;;;;5022398;28;20132;-70
2022/10/13 09:28:19;;;;;;;27.13;19.38;;;13.00;99.90;;;;;;5055781;28;20041;-70
2022/10/13 09:30:46;;;;;;;29.15;19.48;;;13.10;99.90;;;;;;5038011;28;20080;-71
2022/10/13 09:33:12;;;;;;;33.70;22.80;;;13.20;99.90;;;;;;5055574;28;20092;-70
2022/10/13 09:35:57;;;;;;;28.92;21.70;;;13.20;99.90;;;;;;5056052;28;20088;-70
2022/10/13 09:38:24;;;;;;;25.42;18.33;;;13.30;99.90;;;;;;5055525;28;20056;-70
2022/10/13 09:41:04;;;;;;;28.83;19.98;;;13.30;99.90;;;;;;5056041;28;20080;-70
2022/10/13 09:43:34;;;;;;;37.28;21.77;;;13.30;99.90;;;;;;5037915;28;20551;-70
2022/10/13 09:46:03;;;;;;;29.83;20.90;;;13.50;99.90;;;;;;5055264;28;20124;-70
2022/10/13 09:48:35;;;;;;;31.23;22.60;;;13.40;99.90;;;;;;5055366;28;20059;-70
2022/10/13 09:51:01;;;;;;;30.85;20.25;;;13.50;99.90;;;;;;5037727;28;20041;-70
2022/10/13 09:53:38;;;;;;;29.88;20.63;;;13.60;99.90;;;;;;5055667;28;20373;-70
2022/10/13 09:56:19;;;;;;;33.08;22.55;;;13.70;99.90;;;;;;5055599;28;20428;-69
2022/10/13 09:59:14;;;;;;;24.83;16.98;;;13.80;99.90;;;;;;5054977;28;20418;-71
2022/10/13 10:01:44;;;;;;;23.13;18.40;;;13.90;99.90;;;;;;5054840;28;20124;-71
2022/10/13 10:04:19;;;;;;;23.60;17.42;;;14.10;99.90;;;;;;5037672;28;20049;-71
2022/10/13 10:06:45;;;;;;;22.92;17.42;;;13.90;99.90;;;;;;5055304;28;20345;-71
2022/10/13 10:09:33;;;;;;;26.90;18.90;;;13.80;99.90;;;;;;5038028;28;20067;-70
2022/10/13 10:12:00;;;;;;;26.50;18.73;;;13.80;99.90;;;;;;5037869;28;20053;-73
2022/10/13 10:14:35;;;;;;;27.02;17.95;;;13.70;99.90;;;;;;5054732;28;20037;-69
2022/10/13 10:17:15;;;;;;;21.88;16.02;;;13.70;99.90;;;;;;5055137;28;20041;-71
2022/10/13 10:20:00;;;;;;;21.20;16.02;;;13.70;99.90;;;;;;5055379;28;20095;-70
2022/10/13 10:22:51;;;;;;;23.20;17.52;;;13.70;99.90;;;;;;5055182;28;20343;-70
2022/10/13 10:25:27;;;;;;;21.60;17.42;;;13.70;99.90;;;;;;5003546;28;20202;-71
2022/10/13 10:28:21;;;;;;;20.40;14.98;;;13.70;99.90;;;;;;5054539;28;20091;-70
2022/10/13 10:31:09;;;;;;;27.38;16.15;;;13.70;99.90;;;;;;5054531;28;20053;-70
2022/10/13 10:33:58;;;;;;;20.13;14.63;;;13.60;99.90;;;;;;5059207;28;20132;-69
2022/10/13 10:36:38;;;;;;;21.15;16.83;;;13.70;99.90;;;;;;5058500;28;20053;-72
2022/10/13 10:39:39;;;;;;;24.58;18.13;;;13.70;99.90;;;;;;5041553;28;20048;-70
2022/10/13 10:42:26;;;;;;;22.63;18.02;;;13.70;99.90;;;;;;5058285;28;20056;-70
2022/10/13 10:44:53;;;;;;;21.10;15.40;;;13.70;99.90;;;;;;5058480;28;20143;-70
2022/10/13 10:47:23;;;;;;;22.58;16.98;;;13.70;99.90;;;;;;5058886;28;20136;-70
2022/10/13 10:49:54;;;;;;;26.35;18.08;;;13.70;99.90;;;;;;5058734;28;20045;-71
2022/10/13 10:52:30;;;;;;;25.33;18.30;;;13.80;99.90;;;;;;5058908;28;20041;-70
2022/10/13 10:55:10;;;;;;;23.95;19.48;;;13.80;99.90;;;;;;5058351;28;20053;-71
2022/10/13 10:58:05;;;;;;;21.92;17.40;;;13.70;99.90;;;;;;5058927;28;20037;-70
2022/10/13 11:00:38;;;;;;;23.75;17.38;;;13.80;99.90;;;;;;5038771;28;20037;-71
2022/10/13 11:03:12;;;;;;;24.63;18.17;;;13.80;99.90;;;;;;5039341;28;20465;-70
2022/10/13 11:05:56;;;;;;;29.92;19.63;;;13.80;99.90;;;;;;5021650;28;20045;-70
2022/10/13 11:08:45;;;;;;;28.88;21.02;;;13.80;99.90;;;;;;5039118;28;20041;-71
2022/10/13 11:11:27;;;;;;;26.75;20.25;;;13.80;99.90;;;;;;5038558;28;20049;-71
2022/10/13 11:14:05;;;;;;;30.33;20.88;;;13.80;99.90;;;;;;5031821;28;20049;-71
2022/10/13 11:16:39;;;;;;;30.60;21.50;;;13.90;99.90;;;;;;5058319;28;20045;-71
2022/10/13 11:19:07;;;;;;;27.83;20.48;;;13.90;99.90;;;;;;5058366;28;20044;-71
2022/10/13 11:21:53;;;;;;;27.70;19.65;;;14.00;99.90;;;;;;5058300;28;20122;-71
2022/10/13 11:24:41;;;;;;;27.80;20.83;;;13.90;99.90;;;;;;5043857;28;20142;-70
2022/10/13 11:27:38;;;;;;;25.98;18.90;;;14.00;99.90;;;;;;5040541;28;20053;-70
2022/10/13 11:30:25;;;;;;;25.67;18.35;;;14.00;99.90;;;;;;5044222;28;20118;-70
2022/10/13 11:32:54;;;;;;;27.67;20.42;;;13.90;99.90;;;;;;5058138;28;20110;-70
2022/10/13 11:35:25;;;;;;;28.52;20.17;;;13.90;99.90;;;;;;5057783;28;20052;-71
2022/10/13 11:37:57;;;;;;;28.05;20.38;;;13.90;99.90;;;;;;5057995;28;20063;-70
2022/10/13 11:40:31;;;;;;;26.13;19.05;;;13.90;99.90;;;;;;5057831;28;20045;-70
2022/10/13 11:43:09;;;;;;;26.40;19.58;;;13.90;99.90;;;;;;5057168;28;20049;-69
2022/10/13 11:45:52;;;;;;;29.15;20.40;;;13.90;99.90;;;;;;5057209;28;20400;-69
2022/10/13 11:48:39;;;;;;;28.70;21.10;;;13.90;99.90;;;;;;5057837;28;20132;-70
2022/10/13 11:51:27;;;;;;;30.95;20.67;;;14.00;99.90;;;;;;5057929;28;20049;-70
2022/10/13 11:54:12;;;;;;;29.05;20.67;;;14.00;99.90;;;;;;5057398;28;20052;-69
2022/10/13 11:56:43;;;;;;;29.48;19.05;;;14.30;99.90;;;;;;5057665;28;20127;-70
2022/10/13 11:59:30;;;;;;;28.20;22.50;;;14.30;99.90;;;;;;5057711;28;20049;-69
2022/10/13 12:02:05;;;;;;;28.98;20.17;;;14.50;99.90;;;;;;5057139;28;20072;-70
2022/10/13 12:04:30;;;;;;;29.45;20.90;;;14.50;99.90;;;;;;5039956;28;20450;-70
2022/10/13 12:07:00;;;;;;;30.58;22.73;;;14.50;99.90;;;;;;5057471;28;20071;-72
2022/10/13 12:09:28;;;;;;;30.25;23.20;;;14.60;99.90;;;;;;5057154;28;20095;-70
2022/10/13 12:12:03;;;;;;;28.75;22.48;;;14.60;99.90;;;;;;5057505;28;20048;-72
2022/10/13 12:14:43;;;;;;;26.88;19.08;;;14.70;99.90;;;;;;5057517;28;20110;-70
2022/10/13 12:17:26;;;;;;;27.13;19.30;;;14.80;99.90;;;;;;5057093;28;20507;-70
2022/10/13 12:19:53;;;;;;;25.88;20.05;;;14.90;99.90;;;;;;5038971;28;20052;-71
2022/10/13 12:22:20;;;;;;;26.83;20.98;;;14.90;99.90;;;;;;5056813;28;20041;-70
2022/10/13 12:24:57;;;;;;;25.63;18.90;;;14.90;99.90;;;;;;5056782;28;20075;-71
2022/10/13 12:27:23;;;;;;;25.73;21.45;;;14.80;99.90;;;;;;5056847;28;20045;-72
2022/10/13 12:29:48;;;;;;;24.10;17.58;;;14.90;99.90;;;;;;5039594;28;20052;-69
2022/10/13 12:32:25;;;;;;;23.75;19.25;;;14.90;99.90;;;;;;5057089;28;20457;-71
2022/10/13 12:34:51;;;;;;;26.40;20.20;;;14.90;99.90;;;;;;5056198;28;20061;-71
2022/10/13 12:37:33;;;;;;;29.63;19.75;;;14.80;99.90;;;;;;5039717;28;20064;-70
2022/10/13 12:40:00;;;;;;;29.00;20.08;;;14.80;99.90;;;;;;5056653;28;20045;-71
2022/10/13 12:42:34;;;;;;;30.58;21.05;;;14.80;99.90;;;;;;5056184;28;20064;-71
2022/10/13 12:45:01;;;;;;;23.65;19.13;;;14.80;99.90;;;;;;5056827;28;20393;-70
2022/10/13 12:47:56;;;;;;;28.55;21.77;;;14.70;99.90;;;;;;5056081;28;20091;-72
2022/10/13 12:50:33;;;;;;;21.02;15.95;;;14.80;99.90;;;;;;5025241;28;20370;-71